createdAt,value
2023-05-25T00:03:40.440Z,91.41
2023-05-25T00:08:43.439Z,91.49
2023-05-25T00:13:46.255Z,92.59
2023-05-25T00:18:50.450Z,93.82
2023-05-25T00:23:53.316Z,94.52
2023-05-25T00:28:56.225Z,94.71
2023-05-25T00:34:01.044Z,94.24
2023-05-25T00:39:03.847Z,95.12
2023-05-25T00:44:07.638Z,94.59
2023-05-25T00:49:14.589Z,96.16
2023-05-25T00:54:18.523Z,95.58
2023-05-25T00:59:27.970Z,94.45
2023-05-25T01:04:32.626Z,96.76
2023-05-25T01:09:39.547Z,96.15
2023-05-25T01:14:43.338Z,96.27
2023-05-25T01:19:58.070Z,98.72
2023-05-25T01:25:16.298Z,99.77
2023-05-25T01:30:21.137Z,98.96
2023-05-25T01:35:26.365Z,99.23
2023-05-25T01:40:30.606Z,98.71
2023-05-25T01:45:34.401Z,96.96
2023-05-25T01:50:44.418Z,97.11
2023-05-25T01:55:54.928Z,98.66
2023-05-25T02:00:59.506Z,98.48
2023-05-25T02:06:02.693Z,98.36
2023-05-25T02:11:06.980Z,98.45
2023-05-25T02:16:09.849Z,99.03
2023-05-25T02:21:12.940Z,98.36
2023-05-25T02:26:17.149Z,98.88
2023-05-25T02:31:21.383Z,99.63
2023-05-25T02:36:25.029Z,100.00
2023-05-25T02:41:29.297Z,100.00
2023-05-25T02:46:33.563Z,100.00
2023-05-25T02:51:37.038Z,100.00
2023-05-25T02:56:42.429Z,100.00
2023-05-25T03:01:46.980Z,100.00
2023-05-25T03:06:49.789Z,100.00
2023-05-25T03:11:56.286Z,100.00
2023-05-25T03:17:00.819Z,99.68
2023-05-25T03:22:04.788Z,97.30
2023-05-25T03:27:15.114Z,97.61
2023-05-25T03:32:18.331Z,95.39
2023-05-25T03:37:21.298Z,96.93
2023-05-25T03:42:25.616Z,97.31
2023-05-25T03:47:28.729Z,95.20
2023-05-25T03:52:31.697Z,96.98
2023-05-25T03:57:36.089Z,95.03
2023-05-25T04:02:38.954Z,93.70
2023-05-25T04:07:41.803Z,93.51
2023-05-25T04:12:46.074Z,92.69
2023-05-25T04:17:48.931Z,93.24
2023-05-25T04:22:52.071Z,90.52
2023-05-25T04:27:56.940Z,89.98
2023-05-25T04:33:22.439Z,87.45
2023-05-25T04:38:35.595Z,86.14
2023-05-25T04:43:49.304Z,86.13
2023-05-25T04:48:59.809Z,85.42
2023-05-25T04:54:02.707Z,83.81
2023-05-25T04:59:07.184Z,82.60
2023-05-25T05:04:10.462Z,81.48
2023-05-25T05:09:14.283Z,82.25
2023-05-25T05:14:18.487Z,81.39
2023-05-25T05:19:22.961Z,79.22
2023-05-25T05:24:26.051Z,77.87
2023-05-25T05:29:30.262Z,77.33
2023-05-25T05:34:33.659Z,77.03
2023-05-25T05:39:41.831Z,77.97
2023-05-25T05:44:46.045Z,76.68
2023-05-25T05:49:48.850Z,75.25
2023-05-25T05:54:52.485Z,74.20
2023-05-25T06:00:00.010Z,72.67
2023-05-25T06:05:02.913Z,70.78
2023-05-25T06:10:06.884Z,64.18
2023-05-25T06:15:12.504Z,63.36
2023-05-25T06:20:16.666Z,62.78
2023-05-25T06:25:23.797Z,61.61
2023-05-25T06:30:28.038Z,62.69
2023-05-25T06:35:31.027Z,57.12
2023-05-25T06:40:34.199Z,54.01
2023-05-25T06:45:39.797Z,49.48
2023-05-25T06:50:42.953Z,48.52
2023-05-25T06:55:45.954Z,49.23
2023-05-25T07:00:50.598Z,48.70
2023-05-25T07:05:53.457Z,48.78
2023-05-25T07:10:56.231Z,48.00
2023-05-25T07:16:00.484Z,44.63
2023-05-25T07:21:03.602Z,39.54
2023-05-25T07:26:06.591Z,40.40
2023-05-25T07:31:13.043Z,34.02
2023-05-25T07:36:15.982Z,30.00
2023-05-25T07:41:18.837Z,27.49
2023-05-25T07:46:25.247Z,31.89
2023-05-25T07:51:31.135Z,33.75
2023-05-25T07:56:33.999Z,31.85
2023-05-25T08:01:39.112Z,32.14
2023-05-25T08:06:42.198Z,26.92
2023-05-25T08:11:45.761Z,30.09
2023-05-25T08:16:49.999Z,31.95
2023-05-25T08:21:53.572Z,32.05
2023-05-25T08:26:56.605Z,34.28
2023-05-25T08:32:00.916Z,35.61
2023-05-25T08:37:03.762Z,39.19
2023-05-25T08:42:08.105Z,43.47
2023-05-25T08:47:15.307Z,44.65
2023-05-25T08:52:23.444Z,42.45
2023-05-25T08:57:30.676Z,45.49
2023-05-25T09:02:40.262Z,42.62
2023-05-25T09:07:44.372Z,43.28
2023-05-25T09:12:49.893Z,43.01
2023-05-25T09:17:54.174Z,41.88
2023-05-25T09:22:57.059Z,41.19
2023-05-25T09:28:04.789Z,42.58
2023-05-25T09:33:17.582Z,41.93
2023-05-25T09:38:21.820Z,41.28
2023-05-25T09:43:39.707Z,41.94
2023-05-25T09:48:48.604Z,41.33
2023-05-25T09:53:51.978Z,40.81
2023-05-25T09:58:54.801Z,43.03
2023-05-25T10:04:04.357Z,41.95
2023-05-25T10:09:13.923Z,42.46
2023-05-25T10:14:27.141Z,41.46
2023-05-25T10:19:41.400Z,42.12
2023-05-25T10:24:51.291Z,43.69
2023-05-25T10:29:57.085Z,42.39
2023-05-25T10:35:03.010Z,40.95
2023-05-25T10:40:09.485Z,40.98
2023-05-25T10:45:13.438Z,42.04
2023-05-25T10:50:22.881Z,43.25
2023-05-25T10:55:27.784Z,40.88
2023-05-25T11:00:32.262Z,39.62
2023-05-25T11:05:38.818Z,41.57
2023-05-25T11:10:54.469Z,43.94
2023-05-25T11:16:17.681Z,42.65
2023-05-25T11:21:43.496Z,44.99
2023-05-25T11:26:58.071Z,44.40
2023-05-25T11:32:01.250Z,43.41
2023-05-25T11:37:06.151Z,43.25
2023-05-25T11:42:11.325Z,43.49
2023-05-25T11:47:18.612Z,44.30
2023-05-25T11:52:23.129Z,42.61
2023-05-25T11:57:26.705Z,42.32
2023-05-25T12:02:38.896Z,44.23
2023-05-25T12:07:46.878Z,44.02
2023-05-25T12:12:50.873Z,45.04
2023-05-25T12:17:55.480Z,45.45
2023-05-25T12:22:59.796Z,44.07
2023-05-25T12:28:12.024Z,43.17
2023-05-25T12:33:16.084Z,43.88
2023-05-25T12:38:21.799Z,45.09
2023-05-25T12:43:24.751Z,43.82
2023-05-25T12:48:28.170Z,44.19
2023-05-25T12:53:33.737Z,43.81
2023-05-25T12:58:36.518Z,43.86
2023-05-25T13:03:39.716Z,43.02
2023-05-25T13:08:44.260Z,43.09
2023-05-25T13:13:47.091Z,43.82
2023-05-25T13:18:49.864Z,44.62
2023-05-25T13:23:54.026Z,44.17
2023-05-25T13:28:56.811Z,43.87
2023-05-25T13:33:59.801Z,44.33
2023-05-25T13:39:05.245Z,43.90
2023-05-25T13:44:08.151Z,43.94
2023-05-25T13:49:11.924Z,44.38
2023-05-25T13:54:16.114Z,44.09
2023-05-25T13:59:18.978Z,44.50
2023-05-25T14:04:21.833Z,45.35
2023-05-25T14:09:26.221Z,45.29
2023-05-25T14:14:32.232Z,44.84
2023-05-25T14:19:36.040Z,45.52
2023-05-25T14:24:40.433Z,45.88
2023-05-25T14:29:43.316Z,45.83
2023-05-25T14:34:46.403Z,46.12
2023-05-25T14:39:50.588Z,45.29
2023-05-25T14:44:53.451Z,44.14
2023-05-25T14:49:56.460Z,45.11
2023-05-25T14:55:00.654Z,45.58
2023-05-25T15:00:04.152Z,45.95
2023-05-25T15:05:08.064Z,47.62
2023-05-25T15:10:12.869Z,47.34
2023-05-25T15:15:15.720Z,47.74
2023-05-25T15:20:18.673Z,50.76
2023-05-25T15:30:34.372Z,51.52
2023-05-25T15:35:37.231Z,51.47
2023-05-25T15:40:41.408Z,50.05
2023-05-25T15:45:44.397Z,50.55
2023-05-25T15:50:47.370Z,51.81
2023-05-25T15:55:51.547Z,53.10
2023-05-25T16:00:54.376Z,52.76
2023-05-25T16:05:57.828Z,51.48
2023-05-25T16:11:02.091Z,52.93
2023-05-25T16:16:06.427Z,52.91
2023-05-25T16:21:09.294Z,53.05
2023-05-25T16:26:13.688Z,53.41
2023-05-25T16:31:17.454Z,52.89
2023-05-25T16:36:20.472Z,52.74
2023-05-25T16:41:24.618Z,53.68
2023-05-25T16:46:27.464Z,54.81
2023-05-25T16:51:31.048Z,56.25
2023-05-25T16:56:35.587Z,56.33
2023-05-25T17:01:38.527Z,54.46
2023-05-25T17:06:41.335Z,55.14
2023-05-25T17:11:45.434Z,56.50
2023-05-25T17:16:48.258Z,55.70
2023-05-25T17:21:51.208Z,56.03
2023-05-25T17:26:55.355Z,56.63
2023-05-25T17:31:58.200Z,56.77
2023-05-25T17:37:01.104Z,55.90
2023-05-25T17:42:06.438Z,58.22
2023-05-25T17:47:11.098Z,57.60
2023-05-25T17:52:14.399Z,56.76
2023-05-25T17:57:19.268Z,57.24
2023-05-25T18:02:22.301Z,56.23
2023-05-25T18:07:25.385Z,55.08
2023-05-25T18:12:29.658Z,55.29
2023-05-25T18:17:32.602Z,56.16
2023-05-25T18:22:36.500Z,55.97
2023-05-25T18:27:40.849Z,56.62
2023-05-25T18:32:43.800Z,55.86
2023-05-25T18:37:46.746Z,56.67
2023-05-25T18:42:51.303Z,58.00
2023-05-25T18:47:54.300Z,58.16
2023-05-25T18:52:59.533Z,58.31
2023-05-25T18:58:04.138Z,58.68
2023-05-25T19:03:07.150Z,58.76
2023-05-25T19:08:10.471Z,59.42
2023-05-25T19:13:14.739Z,60.10
2023-05-25T19:18:17.721Z,60.42
2023-05-25T19:23:21.177Z,60.62
2023-05-25T19:28:25.664Z,60.84
2023-05-25T19:33:30.888Z,60.65
2023-05-25T19:38:41.177Z,59.60
2023-05-25T19:43:47.834Z,59.37
2023-05-25T19:48:54.085Z,59.75
2023-05-25T19:54:42.654Z,59.51
2023-05-25T19:59:47.404Z,61.13
2023-05-25T20:04:50.286Z,60.84
2023-05-25T20:09:53.116Z,61.30
2023-05-25T20:14:57.292Z,61.24
2023-05-25T20:20:00.830Z,61.10
2023-05-25T20:25:03.771Z,62.21
2023-05-25T20:30:13.856Z,63.18
2023-05-25T20:35:18.553Z,62.35
2023-05-25T20:40:21.835Z,64.16
2023-05-25T20:45:26.180Z,63.31
2023-05-25T20:50:29.262Z,63.32
2023-05-25T20:55:32.399Z,64.12
2023-05-25T21:00:36.572Z,63.66
2023-05-25T21:05:39.525Z,64.18
2023-05-25T21:10:42.330Z,64.97
2023-05-25T21:15:46.768Z,66.75
2023-05-25T21:20:50.136Z,66.72
2023-05-25T21:25:53.004Z,66.93
2023-05-25T21:30:57.296Z,66.83
2023-05-25T21:36:00.149Z,67.84
2023-05-25T21:41:03.014Z,68.85
2023-05-25T21:46:07.143Z,69.65
2023-05-25T21:51:09.987Z,68.72
2023-05-25T21:56:12.898Z,69.35
2023-05-25T22:01:17.196Z,69.75
2023-05-25T22:06:20.112Z,68.46
2023-05-25T22:11:24.409Z,68.80
2023-05-25T22:16:28.562Z,68.65
2023-05-25T22:21:31.395Z,68.89
2023-05-25T22:26:34.265Z,68.18
2023-05-25T22:31:38.565Z,68.24
2023-05-25T22:36:41.399Z,68.06
2023-05-25T22:41:44.284Z,69.50
2023-05-25T22:46:49.008Z,68.94
2023-05-25T22:51:51.956Z,69.67
2023-05-25T22:56:54.744Z,69.89
2023-05-25T23:01:59.060Z,69.56
2023-05-25T23:07:01.849Z,70.54
2023-05-25T23:12:04.955Z,70.00
2023-05-25T23:17:09.110Z,70.17
2023-05-25T23:22:11.998Z,69.73
2023-05-25T23:27:14.813Z,69.99
2023-05-25T23:32:18.962Z,70.06
2023-05-25T23:37:21.759Z,70.69
2023-05-25T23:42:24.595Z,70.93
2023-05-25T23:47:29.253Z,70.78
2023-05-25T23:52:32.080Z,69.77
2023-05-25T23:57:35.856Z,69.97
